createdAt,value
2023-12-18T00:01:43.126Z,2.45
2023-12-18T00:04:11.883Z,2.75
2023-12-18T00:06:39.873Z,3.88
2023-12-18T00:09:08.020Z,4.72
2023-12-18T00:11:37.396Z,5.38
2023-12-18T00:14:05.281Z,3.65
2023-12-18T00:16:33.255Z,4.85
2023-12-18T00:19:01.471Z,2.58
2023-12-18T00:21:29.575Z,6.10
2023-12-18T00:23:57.904Z,3.55
2023-12-18T00:26:25.758Z,4.45
2023-12-18T00:28:55.071Z,3.85
2023-12-18T00:31:23.268Z,4.75
2023-12-18T00:33:51.467Z,3.35
2023-12-18T00:36:19.397Z,3.20
2023-12-18T00:38:47.684Z,3.08
2023-12-18T00:41:15.814Z,2.88
2023-12-18T00:43:43.781Z,2.88
2023-12-18T00:46:13.918Z,3.10
2023-12-18T00:48:42.172Z,2.58
2023-12-18T00:51:12.393Z,7.18
2023-12-18T00:53:40.489Z,2.40
2023-12-18T00:56:08.469Z,4.68
2023-12-18T00:58:36.427Z,4.35
2023-12-18T01:01:04.435Z,6.22
2023-12-18T01:03:33.952Z,3.75
2023-12-18T01:06:03.956Z,3.03
2023-12-18T01:08:31.894Z,3.45
2023-12-18T01:11:00.204Z,3.78
2023-12-18T01:13:28.126Z,3.63
2023-12-18T01:15:57.726Z,3.35
2023-12-18T01:18:25.816Z,5.18
2023-12-18T01:20:55.597Z,2.95
2023-12-18T01:23:23.561Z,3.03
2023-12-18T01:25:51.649Z,3.75
2023-12-18T01:28:19.451Z,7.78
2023-12-18T01:30:47.655Z,2.38
2023-12-18T01:33:16.290Z,3.63
2023-12-18T01:35:45.089Z,3.72
2023-12-18T01:38:14.629Z,4.47
2023-12-18T01:40:42.572Z,4.25
2023-12-18T01:43:26.601Z,3.10
2023-12-18T01:45:57.019Z,4.65
2023-12-18T01:48:25.148Z,3.70
2023-12-18T01:50:53.854Z,2.97
2023-12-18T01:53:23.944Z,4.03
2023-12-18T01:55:52.669Z,4.30
2023-12-18T01:58:20.824Z,3.38
2023-12-18T02:00:49.015Z,2.58
2023-12-18T02:03:18.407Z,6.45
2023-12-18T02:05:47.348Z,4.82
2023-12-18T02:08:16.666Z,4.57
2023-12-18T02:10:46.760Z,5.85
2023-12-18T02:13:14.627Z,4.50
2023-12-18T02:15:42.748Z,3.80
2023-12-18T02:18:11.240Z,3.85
2023-12-18T02:20:39.886Z,3.60
2023-12-18T02:23:09.580Z,4.10
2023-12-18T02:25:37.447Z,3.50
2023-12-18T02:28:06.956Z,4.38
2023-12-18T02:30:38.124Z,5.80
2023-12-18T02:33:07.365Z,3.42
2023-12-18T02:35:35.436Z,4.18
2023-12-18T02:38:03.669Z,5.18
2023-12-18T02:40:33.151Z,5.10
2023-12-18T02:43:01.061Z,4.18
2023-12-18T02:45:29.031Z,4.82
2023-12-18T02:47:57.225Z,3.83
2023-12-18T02:50:25.164Z,4.10
2023-12-18T02:52:53.356Z,4.45
2023-12-18T02:55:22.136Z,3.97
2023-12-18T02:57:51.971Z,6.78
2023-12-18T03:00:20.281Z,5.28
2023-12-18T03:02:48.374Z,4.90
2023-12-18T03:05:17.249Z,3.90
2023-12-18T03:07:45.439Z,5.07
2023-12-18T03:10:13.397Z,2.83
2023-12-18T03:12:41.599Z,6.90
2023-12-18T03:15:13.622Z,3.97
2023-12-18T03:17:42.114Z,5.43
2023-12-18T03:20:10.698Z,6.95
2023-12-18T03:22:38.615Z,4.25
2023-12-18T03:25:07.216Z,4.68
2023-12-18T03:27:38.662Z,4.57
2023-12-18T03:30:07.406Z,4.50
2023-12-18T03:32:38.656Z,6.10
2023-12-18T03:35:07.220Z,4.95
2023-12-18T03:37:35.902Z,6.60
2023-12-18T03:40:04.318Z,4.35
2023-12-18T03:42:32.303Z,5.47
2023-12-18T03:45:00.525Z,5.60
2023-12-18T03:47:29.352Z,4.18
2023-12-18T03:49:59.545Z,4.95
2023-12-18T03:52:27.873Z,7.38
2023-12-18T03:54:56.286Z,3.60
2023-12-18T03:57:25.613Z,4.05
2023-12-18T03:59:53.619Z,4.57
2023-12-18T04:02:21.857Z,3.15
2023-12-18T04:04:50.208Z,5.20
2023-12-18T04:07:20.607Z,5.18
2023-12-18T04:09:48.818Z,5.10
2023-12-18T04:12:17.089Z,5.80
2023-12-18T04:14:45.021Z,6.25
2023-12-18T04:17:12.989Z,4.68
2023-12-18T04:19:41.266Z,4.55
2023-12-18T04:22:09.154Z,3.75
2023-12-18T04:24:38.626Z,5.13
2023-12-18T04:27:06.840Z,4.53
2023-12-18T04:29:34.798Z,5.63
2023-12-18T04:32:02.863Z,4.47
2023-12-18T04:34:30.836Z,4.32
2023-12-18T04:37:02.399Z,4.03
2023-12-18T04:39:31.215Z,4.43
2023-12-18T04:42:00.955Z,4.75
2023-12-18T04:44:29.880Z,4.35
2023-12-18T04:46:58.201Z,4.90
2023-12-18T04:49:26.986Z,6.72
2023-12-18T04:51:55.424Z,4.57
2023-12-18T04:54:23.588Z,6.50
2023-12-18T04:56:51.577Z,7.35
2023-12-18T04:59:20.914Z,7.47
2023-12-18T05:01:48.701Z,3.90
2023-12-18T05:04:17.237Z,5.47
2023-12-18T05:06:45.625Z,8.35
2023-12-18T05:09:13.546Z,5.50
2023-12-18T05:11:41.729Z,4.57
2023-12-18T05:14:09.852Z,4.70
2023-12-18T05:16:39.174Z,5.95
2023-12-18T05:19:07.272Z,3.45
2023-12-18T05:21:35.236Z,4.57
2023-12-18T05:24:03.187Z,7.50
2023-12-18T05:26:31.266Z,5.68
2023-12-18T05:29:00.264Z,4.22
2023-12-18T05:31:29.005Z,6.90
2023-12-18T05:33:59.139Z,12.07
2023-12-18T05:36:27.396Z,3.63
2023-12-18T05:38:55.567Z,4.45
2023-12-18T05:41:23.469Z,7.05
2023-12-18T05:43:51.678Z,4.90
2023-12-18T05:46:19.689Z,4.15
2023-12-18T05:48:47.808Z,4.35
2023-12-18T05:51:24.296Z,4.15
2023-12-18T05:53:52.261Z,6.88
2023-12-18T05:56:20.393Z,5.32
2023-12-18T05:58:48.378Z,4.53
2023-12-18T06:01:18.392Z,5.88
2023-12-18T06:03:47.185Z,3.83
2023-12-18T06:06:15.420Z,5.90
2023-12-18T06:08:45.141Z,8.05
2023-12-18T06:11:13.298Z,7.22
2023-12-18T06:13:41.811Z,15.63
2023-12-18T06:16:09.694Z,12.73
2023-12-18T06:18:38.678Z,11.05
2023-12-18T06:21:07.626Z,9.45
2023-12-18T06:23:36.041Z,8.00
2023-12-18T06:26:05.851Z,13.13
2023-12-18T06:28:33.755Z,14.82
2023-12-18T06:31:02.290Z,9.95
2023-12-18T06:33:30.459Z,13.35
2023-12-18T06:35:58.693Z,11.40
2023-12-18T06:38:26.777Z,13.20
2023-12-18T06:40:54.690Z,8.77
2023-12-18T06:43:24.204Z,17.42
2023-12-18T06:45:52.556Z,14.45
2023-12-18T06:48:21.047Z,13.63
2023-12-18T06:50:49.007Z,13.48
2023-12-18T06:53:16.951Z,17.38
2023-12-18T06:55:45.238Z,11.32
2023-12-18T06:58:13.273Z,17.33
2023-12-18T07:00:43.051Z,14.38
2023-12-18T07:03:11.204Z,13.15
2023-12-18T07:05:39.529Z,16.70
2023-12-18T07:08:11.115Z,19.13
2023-12-18T07:10:39.850Z,19.23
2023-12-18T07:13:08.206Z,20.88
2023-12-18T07:15:36.171Z,20.23
2023-12-18T07:18:08.743Z,16.52
2023-12-18T07:20:37.252Z,19.85
2023-12-18T07:23:05.317Z,18.33
2023-12-18T07:25:33.207Z,17.55
2023-12-18T07:28:01.761Z,18.38
2023-12-18T07:30:29.745Z,16.65
2023-12-18T07:32:57.774Z,16.00
2023-12-18T07:35:27.407Z,14.18
2023-12-18T07:37:55.468Z,14.60
2023-12-18T07:40:24.181Z,16.20
2023-12-18T07:42:52.788Z,15.00
2023-12-18T07:45:21.063Z,13.43
2023-12-18T07:47:49.617Z,14.57
2023-12-18T07:50:18.084Z,12.52
2023-12-18T07:52:47.683Z,13.55
2023-12-18T07:55:16.005Z,14.55
2023-12-18T07:57:44.407Z,12.52
2023-12-18T08:00:15.106Z,13.38
2023-12-18T08:02:44.723Z,12.27
2023-12-18T08:05:12.857Z,15.00
2023-12-18T08:07:41.302Z,11.05
2023-12-18T08:10:12.506Z,11.57
2023-12-18T08:12:40.901Z,13.75
2023-12-18T08:15:10.493Z,10.00
2023-12-18T08:17:41.631Z,10.52
2023-12-18T08:20:11.215Z,11.50
2023-12-18T08:22:39.248Z,10.13
2023-12-18T08:25:08.623Z,10.40
2023-12-18T08:27:38.278Z,10.65
2023-12-18T08:30:07.390Z,10.00
2023-12-18T08:32:35.612Z,9.38
2023-12-18T08:35:03.951Z,8.73
2023-12-18T08:37:31.873Z,8.07
2023-12-18T08:39:59.980Z,11.60
2023-12-18T08:42:29.217Z,10.15
2023-12-18T08:44:58.847Z,9.25
2023-12-18T08:47:26.750Z,11.05
2023-12-18T08:49:54.782Z,8.45
2023-12-18T08:52:23.065Z,9.88
2023-12-18T08:54:51.091Z,9.75
2023-12-18T08:57:19.004Z,11.40
2023-12-18T08:59:47.145Z,9.60
2023-12-18T09:02:17.106Z,7.22
2023-12-18T09:04:45.186Z,6.82
2023-12-18T09:07:13.367Z,6.53
2023-12-18T09:09:45.038Z,8.13
2023-12-18T09:12:13.548Z,5.95
2023-12-18T09:14:41.492Z,6.00
2023-12-18T09:17:09.774Z,5.95
2023-12-18T09:19:39.534Z,6.55
2023-12-18T09:22:08.113Z,4.85
2023-12-18T09:24:36.881Z,6.55
2023-12-18T09:27:06.594Z,7.70
2023-12-18T09:29:34.838Z,5.43
2023-12-18T09:32:04.087Z,6.18
2023-12-18T09:34:32.436Z,5.47
2023-12-18T09:37:02.311Z,4.55
2023-12-18T09:39:30.228Z,4.28
2023-12-18T09:42:02.426Z,4.88
2023-12-18T09:44:32.265Z,3.25
2023-12-18T09:47:00.839Z,5.53
2023-12-18T09:49:28.778Z,5.05
2023-12-18T09:51:59.005Z,3.50
2023-12-18T09:54:28.416Z,4.55
2023-12-18T09:56:56.812Z,8.05
2023-12-18T09:59:24.722Z,4.82
2023-12-18T10:01:55.327Z,5.90
2023-12-18T10:04:23.409Z,7.78
2023-12-18T10:06:52.181Z,5.10
2023-12-18T10:09:21.067Z,4.32
2023-12-18T10:11:53.910Z,3.70
2023-12-18T10:14:22.092Z,6.03
2023-12-18T10:16:50.330Z,5.82
2023-12-18T10:19:18.537Z,5.35
2023-12-18T10:21:46.734Z,5.60
2023-12-18T10:24:17.811Z,5.00
2023-12-18T10:26:48.807Z,5.90
2023-12-18T10:29:18.269Z,6.63
2023-12-18T10:31:46.719Z,5.15
2023-12-18T10:34:14.859Z,5.57
2023-12-18T10:36:45.829Z,7.07
2023-12-18T10:39:16.925Z,2.78
2023-12-18T10:41:46.123Z,6.50
2023-12-18T10:44:16.089Z,4.30
2023-12-18T10:46:46.077Z,4.47
2023-12-18T10:49:15.498Z,4.63
2023-12-18T10:51:44.384Z,5.82
2023-12-18T10:54:12.904Z,7.10
2023-12-18T10:56:42.014Z,5.72
2023-12-18T10:59:10.892Z,5.30
2023-12-18T11:01:39.402Z,4.15
2023-12-18T11:04:10.310Z,6.57
2023-12-18T11:06:38.453Z,4.90
2023-12-18T11:09:06.385Z,4.53
2023-12-18T11:11:35.320Z,4.57
2023-12-18T11:14:10.036Z,3.90
2023-12-18T11:16:43.254Z,5.57
2023-12-18T11:19:22.862Z,3.75
2023-12-18T11:21:55.661Z,4.82
2023-12-18T11:24:24.227Z,8.20
2023-12-18T11:26:52.532Z,4.40
2023-12-18T11:29:38.981Z,4.45
2023-12-18T11:32:07.433Z,4.10
2023-12-18T11:34:36.961Z,5.72
2023-12-18T11:37:08.275Z,4.95
2023-12-18T11:39:38.886Z,4.47
2023-12-18T11:42:07.160Z,4.85
2023-12-18T11:44:37.066Z,5.22
2023-12-18T11:47:06.023Z,4.45
2023-12-18T11:49:34.523Z,5.07
2023-12-18T11:52:19.787Z,5.53
2023-12-18T11:54:49.664Z,5.10
2023-12-18T11:57:21.528Z,5.00
2023-12-18T11:59:50.274Z,4.53
2023-12-18T12:02:18.521Z,7.57
2023-12-18T12:04:46.581Z,4.55
2023-12-18T12:07:16.038Z,3.40
2023-12-18T12:09:44.984Z,4.50
2023-12-18T12:12:15.911Z,3.95
2023-12-18T12:14:44.060Z,5.53
2023-12-18T12:17:12.310Z,3.95
2023-12-18T12:19:40.768Z,3.85
2023-12-18T12:22:09.173Z,4.18
2023-12-18T12:24:43.745Z,2.65
2023-12-18T12:27:13.238Z,5.55
2023-12-18T12:29:42.686Z,6.00
2023-12-18T12:32:14.984Z,5.20
2023-12-18T12:34:43.681Z,4.67
2023-12-18T12:37:13.737Z,3.53
2023-12-18T12:42:39.513Z,5.85
2023-12-18T12:45:07.678Z,4.90
2023-12-18T12:47:35.983Z,2.95
2023-12-18T12:50:04.378Z,3.65
2023-12-18T12:52:32.118Z,3.28
2023-12-18T12:54:59.770Z,4.32
2023-12-18T12:57:27.557Z,2.80
2023-12-18T12:59:57.090Z,3.05
2023-12-18T13:02:25.351Z,4.28
2023-12-18T13:04:53.459Z,3.35
2023-12-18T13:07:21.811Z,5.00
2023-12-18T13:09:49.865Z,3.70
2023-12-18T13:12:18.425Z,5.60
2023-12-18T13:14:46.526Z,3.63
2023-12-18T13:17:15.846Z,4.80
2023-12-18T13:19:43.560Z,5.60
2023-12-18T13:22:11.258Z,7.20
2023-12-18T13:24:39.591Z,4.95
2023-12-18T13:27:07.269Z,4.03
2023-12-18T13:29:36.150Z,4.47
2023-12-18T13:32:04.032Z,3.72
2023-12-18T13:34:34.260Z,3.30
2023-12-18T13:37:02.264Z,5.10
2023-12-18T13:39:30.182Z,4.38
2023-12-18T13:42:00.567Z,3.53
2023-12-18T13:44:29.910Z,6.97
2023-12-18T13:46:57.753Z,5.97
2023-12-18T13:49:25.622Z,3.63
2023-12-18T13:51:54.807Z,3.67
2023-12-18T13:54:23.306Z,4.45
2023-12-18T13:56:51.190Z,4.43
2023-12-18T13:59:18.904Z,4.18
2023-12-18T14:01:46.688Z,4.72
2023-12-18T14:04:15.060Z,3.20
2023-12-18T14:06:42.987Z,5.43
2023-12-18T14:09:12.217Z,4.55
2023-12-18T14:11:39.937Z,3.33
2023-12-18T14:14:08.103Z,3.53
2023-12-18T14:16:35.836Z,4.22
2023-12-18T14:19:03.660Z,3.17
2023-12-18T14:21:32.986Z,3.17
2023-12-18T14:24:00.780Z,2.85
2023-12-18T14:26:30.268Z,5.82
2023-12-18T14:28:59.195Z,3.55
2023-12-18T14:31:27.159Z,5.10
2023-12-18T14:33:55.833Z,5.30
2023-12-18T14:36:23.763Z,4.80
2023-12-18T14:38:53.033Z,4.70
2023-12-18T14:41:21.223Z,3.67
2023-12-18T14:43:50.391Z,4.30
2023-12-18T14:46:18.146Z,4.78
2023-12-18T14:48:46.126Z,4.40
2023-12-18T14:51:14.036Z,3.67
2023-12-18T14:53:41.780Z,4.13
2023-12-18T14:56:10.115Z,4.80
2023-12-18T14:58:37.849Z,4.25
2023-12-18T15:01:07.226Z,4.63
2023-12-18T15:03:35.178Z,4.22
2023-12-18T15:06:03.131Z,5.90
2023-12-18T15:08:30.814Z,4.95
2023-12-18T15:11:00.794Z,4.22
2023-12-18T15:13:28.564Z,5.03
2023-12-18T15:15:56.338Z,6.03
2023-12-18T15:18:25.513Z,3.92
2023-12-18T15:20:53.255Z,4.20
2023-12-18T15:23:20.959Z,4.35
2023-12-18T15:25:48.666Z,4.05
2023-12-18T15:28:16.410Z,4.85
2023-12-18T15:30:44.177Z,6.72
2023-12-18T15:33:12.171Z,4.18
2023-12-18T15:35:46.880Z,4.43
2023-12-18T15:38:14.613Z,7.40
2023-12-18T15:40:42.328Z,3.75
2023-12-18T15:43:10.089Z,4.97
2023-12-18T15:45:37.914Z,5.00
2023-12-18T15:48:06.302Z,4.00
2023-12-18T15:50:35.951Z,4.13
2023-12-18T15:53:05.630Z,5.28
2023-12-18T15:55:33.487Z,5.72
2023-12-18T15:58:01.152Z,4.38
2023-12-18T16:00:29.078Z,5.53
2023-12-18T16:02:56.847Z,4.63
2023-12-18T16:05:24.618Z,5.47
2023-12-18T16:07:52.389Z,6.43
2023-12-18T16:10:21.669Z,7.15
2023-12-18T16:12:49.436Z,7.20
2023-12-18T16:15:17.214Z,8.27
2023-12-18T16:17:45.011Z,8.77
2023-12-18T16:20:12.872Z,6.85
2023-12-18T16:22:40.880Z,6.63
2023-12-18T16:25:09.041Z,7.47
2023-12-18T16:27:38.236Z,7.28
2023-12-18T16:30:07.776Z,7.50
2023-12-18T16:32:37.802Z,5.35
2023-12-18T16:35:07.693Z,7.28
2023-12-18T16:37:35.575Z,8.77
2023-12-18T16:40:03.400Z,6.32
2023-12-18T16:42:31.309Z,9.68
2023-12-18T16:45:01.303Z,9.95
2023-12-18T16:47:30.499Z,5.28
2023-12-18T16:49:58.779Z,6.95
2023-12-18T16:52:31.834Z,10.10
2023-12-18T16:54:59.636Z,5.72
2023-12-18T16:57:27.565Z,6.78
2023-12-18T17:00:02.874Z,7.35
2023-12-18T17:02:40.382Z,4.65
2023-12-18T17:05:10.189Z,5.88
2023-12-18T17:07:37.941Z,7.75
2023-12-18T17:10:05.994Z,5.75
2023-12-18T17:12:33.720Z,4.78
2023-12-18T17:15:01.450Z,4.50
2023-12-18T17:17:30.594Z,7.00
2023-12-18T17:20:00.058Z,4.60
2023-12-18T17:22:27.892Z,5.60
2023-12-18T17:24:55.666Z,7.47
2023-12-18T17:27:23.468Z,7.65
2023-12-18T17:29:51.181Z,8.60
2023-12-18T17:32:28.303Z,5.15
2023-12-18T17:35:00.508Z,5.85
2023-12-18T17:37:28.480Z,5.97
2023-12-18T17:39:56.246Z,5.47
2023-12-18T17:42:24.215Z,7.38
2023-12-18T17:44:51.946Z,5.95
2023-12-18T17:47:22.792Z,7.65
2023-12-18T17:49:50.570Z,5.93
2023-12-18T17:52:19.780Z,5.05
2023-12-18T17:54:47.795Z,6.63
2023-12-18T17:57:15.696Z,5.32
2023-12-18T17:59:43.429Z,6.93
2023-12-18T18:02:11.726Z,5.93
2023-12-18T18:04:39.501Z,8.32
2023-12-18T18:07:07.234Z,5.32
2023-12-18T18:09:36.323Z,7.43
2023-12-18T18:12:04.225Z,4.97
2023-12-18T18:14:31.964Z,6.60
2023-12-18T18:16:59.749Z,6.13
2023-12-18T18:19:27.516Z,5.95
2023-12-18T18:21:55.409Z,6.55
2023-12-18T18:24:23.461Z,7.03
2023-12-18T18:27:08.102Z,6.07
2023-12-18T18:29:38.379Z,4.82
2023-12-18T18:32:06.584Z,7.32
2023-12-18T18:34:34.480Z,7.50
2023-12-18T18:37:02.247Z,7.78
2023-12-18T18:39:29.998Z,4.75
2023-12-18T18:41:59.116Z,5.60
2023-12-18T18:44:26.832Z,4.90
2023-12-18T18:46:55.220Z,6.40
2023-12-18T18:49:23.006Z,4.95
2023-12-18T18:51:50.961Z,6.05
2023-12-18T18:54:18.724Z,6.63
2023-12-18T18:56:46.448Z,3.83
2023-12-18T18:59:15.605Z,4.75
2023-12-18T19:01:43.336Z,5.63
2023-12-18T19:04:12.177Z,4.68
2023-12-18T19:06:41.469Z,4.10
2023-12-18T19:09:09.195Z,3.25
2023-12-18T19:11:36.875Z,5.00
2023-12-18T19:14:04.562Z,5.40
2023-12-18T19:16:33.640Z,5.50
2023-12-18T19:19:01.424Z,4.70
2023-12-18T19:21:30.499Z,5.00
2023-12-18T19:23:58.340Z,5.03
2023-12-18T19:26:26.111Z,4.47
2023-12-18T19:28:53.958Z,5.75
2023-12-18T19:31:21.869Z,5.13
2023-12-18T19:33:51.163Z,7.85
2023-12-18T19:36:19.052Z,9.40
2023-12-18T19:38:47.575Z,3.50
2023-12-18T19:41:19.647Z,3.70
2023-12-18T19:43:47.594Z,5.22
2023-12-18T19:46:15.248Z,4.57
2023-12-18T19:48:43.164Z,5.82
2023-12-18T19:51:12.420Z,4.85
2023-12-18T19:53:40.596Z,5.38
2023-12-18T19:56:09.846Z,4.40
2023-12-18T19:58:37.853Z,5.00
2023-12-18T20:01:07.339Z,4.28
2023-12-18T20:03:35.271Z,5.25
2023-12-18T20:06:05.691Z,6.10
2023-12-18T20:08:35.175Z,6.35
2023-12-18T20:11:02.876Z,4.65
2023-12-18T20:13:30.817Z,5.35
2023-12-18T20:15:58.599Z,4.88
2023-12-18T20:18:26.958Z,3.83
2023-12-18T20:20:55.074Z,5.15
2023-12-18T20:23:22.770Z,5.82
2023-12-18T20:25:51.871Z,5.35
2023-12-18T20:28:19.543Z,3.38
2023-12-18T20:30:47.411Z,5.07
2023-12-18T20:33:15.343Z,3.05
2023-12-18T20:35:43.782Z,4.35
2023-12-18T20:38:12.186Z,4.88
2023-12-18T20:40:40.734Z,3.45
2023-12-18T20:43:09.835Z,4.15
2023-12-18T20:45:39.173Z,3.72
2023-12-18T20:48:06.956Z,4.25
2023-12-18T20:50:34.947Z,6.00
2023-12-18T20:53:02.883Z,9.25
2023-12-18T20:55:30.812Z,7.22
2023-12-18T20:57:59.610Z,6.78
2023-12-18T21:00:29.557Z,6.45
2023-12-18T21:02:57.687Z,6.32
2023-12-18T21:05:25.918Z,6.95
2023-12-18T21:07:53.697Z,6.35
2023-12-18T21:10:21.697Z,7.15
2023-12-18T21:12:49.499Z,6.78
2023-12-18T21:15:17.259Z,6.45
2023-12-18T21:17:46.433Z,7.95
2023-12-18T21:20:14.253Z,5.40
2023-12-18T21:22:42.287Z,3.97
2023-12-18T21:25:11.904Z,8.85
2023-12-18T21:27:42.190Z,5.30
2023-12-18T21:30:10.589Z,6.38
2023-12-18T21:32:38.372Z,6.55
2023-12-18T21:35:08.226Z,6.07
2023-12-18T21:37:35.917Z,5.57
2023-12-18T21:40:03.717Z,4.18
2023-12-18T21:42:31.551Z,4.45
2023-12-18T21:44:59.405Z,5.38
2023-12-18T21:47:30.853Z,3.47
2023-12-18T21:49:59.176Z,5.07
2023-12-18T21:52:28.320Z,6.40
2023-12-18T21:54:56.926Z,5.40
2023-12-18T21:57:24.712Z,4.63
2023-12-18T21:59:53.175Z,5.75
2023-12-18T22:02:20.889Z,5.10
2023-12-18T22:04:48.671Z,4.32
2023-12-18T22:07:16.391Z,6.13
2023-12-18T22:09:45.451Z,3.65
2023-12-18T22:12:13.174Z,6.78
2023-12-18T22:14:40.997Z,5.30
2023-12-18T22:17:08.693Z,5.32
2023-12-18T22:19:36.601Z,5.18
2023-12-18T22:22:04.992Z,5.22
2023-12-18T22:24:32.744Z,6.13
2023-12-18T22:27:03.662Z,4.22
2023-12-18T22:29:31.393Z,5.90
2023-12-18T22:32:01.180Z,5.28
2023-12-18T22:34:29.153Z,4.47
2023-12-18T22:36:57.314Z,4.68
2023-12-18T22:39:25.365Z,5.05
2023-12-18T22:41:53.105Z,4.60
2023-12-18T22:44:22.241Z,5.82
2023-12-18T22:46:49.941Z,5.80
2023-12-18T22:49:18.118Z,4.28
2023-12-18T22:51:45.905Z,3.78
2023-12-18T22:54:13.750Z,4.68
2023-12-18T22:56:41.466Z,4.72
2023-12-18T22:59:09.202Z,4.75
2023-12-18T23:01:38.284Z,4.50
2023-12-18T23:04:06.775Z,5.78
2023-12-18T23:06:34.594Z,7.10
2023-12-18T23:09:02.335Z,6.65
2023-12-18T23:11:30.033Z,7.70
2023-12-18T23:13:57.785Z,6.25
2023-12-18T23:16:25.495Z,5.43
2023-12-18T23:18:54.685Z,5.28
2023-12-18T23:21:22.530Z,7.18
2023-12-18T23:23:56.131Z,7.40
2023-12-18T23:26:23.901Z,5.30
2023-12-18T23:28:51.855Z,7.13
2023-12-18T23:31:19.847Z,6.03
2023-12-18T23:33:47.952Z,6.85
2023-12-18T23:36:17.171Z,6.68
2023-12-18T23:38:45.268Z,5.47
2023-12-18T23:41:13.943Z,6.03
2023-12-18T23:43:41.647Z,6.05
2023-12-18T23:46:09.635Z,5.93
2023-12-18T23:48:37.540Z,5.05
2023-12-18T23:51:05.563Z,6.28
2023-12-18T23:53:34.603Z,5.90
2023-12-18T23:56:04.789Z,7.43
2023-12-18T23:58:32.847Z,8.15
